Tiempo atmosférico en la estación meteorológica de Zorita, Cáceres (413 m.)



Fecha
DESCASC
Temp. máxima en grados centígrados (hora)
DESCASC
Temp. mínima en grados centígrados (hora)
DESCASC
Temp. media en grados centígrados
DESCASC
Racha de viento máxima en m/sg (hora)
DESCASC
Velocidad máxima media en intervalos de 10 minutos(hora)
DESCASC
Precipitaciones diarias en mm
DESCASC
Precipitaciones de 00:00 a 06:00 en mm
DESCASC
Precipitaciones de 06:00 a 12:00 en mm
DESCASC
Precipitaciones de 12:00 a 18:00 en mm
DESCASC
Precipitaciones de 18:00 a 24:00 en mm
DESCASC
24-05-2020 32.4 (17:00) 18.6 (07:00) 25.5 7.5 (00:50) 5.83 (00:50) 0 0 0 0 0
23-05-2020 31.2 (17:40) 16.7 (07:10) 24 7.78 (02:10) 6.11 (01:40) 0 0 0 0 0
22-05-2020 31 (16:40) 15.9 (07:00) 23.4 8.89 (01:40) 7.22 (01:40) 0 0 0 0 0
21-05-2020 30.5 (17:00) 16.4 (00:00) 23.4 8.89 (00:50) 6.67 (00:30) 0 0 0 0 0
20-05-2020 29.5 (17:10) 14.7 (00:00) 22.1 8.89 (22:40) 6.11 (23:30) 0 0 0 0 0
19-05-2020 28.6 (17:10) 12.8 (00:00) 20.7 5.83 (15:20) 4.17 (23:30) 0 0 0 0 0
18-05-2020 26.3 (18:30) 11.4 (00:00) 18.8 7.22 (14:40) 4.17 (19:10) 0 0 0 0 0
17-05-2020 23.3 (18:30) 11.5 (00:00) 17.4 7.22 (23:10) 5.56 (23:00) 0 0 0 0 0
16-05-2020 20.6 (13:50) 9.7 (00:00) 15.2 7.22 (16:30) 5.28 (16:30) 2 0 0 2 0
15-05-2020 19 (16:10) 10.8 (00:00) 14.9 11.67 (17:00) 8.06 (17:10) 13 0 0.2 10.4 2.4
14-05-2020 14.1 (19:40) 9.7 (00:00) 11.9 9.17 (01:10) 6.39 (01:10) 13.2 3.6 0.2 8.4 1
13-05-2020 18.6 (16:00) 10.3 (00:00) 14.5 12.78 (18:20) 8.33 (18:20) 3.8 0 0 0 3.8
12-05-2020 16.2 (12:10) 10.8 (00:00) 13.5 11.67 (13:40) 6.11 (12:40) 11.8 0 0 10 1.8
11-05-2020 18.3 (19:40) 11.8 (00:00) 15 9.72 (13:50) 6.67 (19:10) 11.4 0 4.2 7.2 0
10-05-2020 18.5 (19:10) 10.3 (00:00) 14.4 14.72 (14:50) 8.33 (16:50) 4 0.2 2.4 1.4 0
09-05-2020 22.6 (16:20) 12.4 (00:00) 17.5 12.78 (17:20) 8.33 (17:20) 7.4 0 0 0 7.4
08-05-2020 27.9 (17:10) 15.1 (00:00) 21.5 13.33 (17:40) 5.83 (17:40) 0 0 0 0 0
07-05-2020 27.1 (18:10) 13.1 (00:00) 20.1 8.89 (11:40) 6.67 (11:40) 0 0 0 0 0
06-05-2020 23.7 (17:20) 12.1 (00:00) 17.9 8.06 (23:10) 5.83 (23:00) 0 0 0 0 0
05-05-2020 22.5 (17:10) 11.1 (00:00) 16.8 7.5 (00:20) 5.83 (00:10) 0 0 0 0 0
04-05-2020 28.7 (14:10) 16.8 (00:00) 22.8 13.61 (14:10) 9.72 (17:30) 0 0 0 0 0
03-05-2020 28.9 (17:00) 14.6 (00:00) 21.8 8.33 (12:00) 5.83 (11:50) 0 0 0 0 0
02-05-2020 26.2 (19:10) 11.6 (00:00) 18.9 5.83 (18:20) 3.61 (22:40) 0 0 0 0 0
01-05-2020 21.4 (18:40) 11.6 (00:00) 16.5 8.61 (16:20) 6.11 (15:30) 0 0 0 0 0
30-04-2020 17.8 (17:20) 11.4 (00:00) 14.6 8.61 (12:20) 6.39 (12:20) 1.4 1.2 0 0.2 0
29-04-2020 19.1 (16:00) 8.2 (00:00) 13.7 10.56 (19:50) 7.78 (20:00) 0 0 0 0 0
28-04-2020 17.7 (19:10) 7.7 (00:00) 12.7 9.72 (19:10) 6.67 (19:10) 0 0 0 0 0
27-04-2020 17.8 (17:30) 9.7 (00:00) 13.7 9.44 (18:40) 6.67 (18:30) 0.8 0.8 0 0 0
26-04-2020 17.5 (16:00) 8.4 (00:00) 12.9 9.17 (17:20) 7.22 (17:30) 0 0 0 0 0

Gráficas

Temp. máximas Temp. mínimas Temp. medias Precipitaciones Rachas de viento máximas Velocidades máximas media en intervalos de 10 minutos

Datos horarios

Fecha y hora oficial Temperatura (ºC) Velocidad del viento (km/h) Dirección del viento Racha (km/h) Dirección de racha Precipitación (mm) Presión (hPa) Tendencia (hPa) Humedad (%)
2020-05-25 23:00:00 23.7 26 Nordeste 37 Nordeste 0 -- -- 50
2020-05-25 22:00:00 24.7 15 Nordeste 27 Nordeste 0 -- -- 46
2020-05-25 21:00:00 30 4 Noroeste 10 Oeste 0 -- -- 36
2020-05-25 20:00:00 30.9 7 Oeste 21 Noroeste 0 -- -- 30
2020-05-25 19:00:00 30.9 18 Noroeste 26 Noroeste 0 -- -- 30
2020-05-25 18:00:00 31.6 15 Oeste 27 Oeste 0 -- -- 34
2020-05-25 17:00:00 31.6 17 Oeste 27 Sudoeste 0 -- -- 35
2020-05-25 16:00:00 31 8 Oeste 22 Oeste 0 -- -- 40
2020-05-25 15:00:00 30.7 10 Oeste 18 Oeste 0 -- -- 43
2020-05-25 14:00:00 29.9 4 Sudoeste 13 Sudeste 0 -- -- 44
2020-05-25 13:00:00 28.9 7 Este 13 Sudeste 0 -- -- 50
2020-05-25 12:00:00 27.7 8 Sudeste 15 Sudeste 0 -- -- 53
2020-05-25 11:00:00 26 9 Este 17 Sudeste 0 -- -- 59
2020-05-25 10:00:00 24.1 13 Este 18 Este 0 -- -- 63
2020-05-25 09:00:00 22.2 12 Este 15 Este 0 -- -- 68
2020-05-25 08:00:00 20.9 10 Este 12 Este 0 -- -- 67
2020-05-25 07:00:00 19.9 9 Este 12 Nordeste 0 -- -- 70
2020-05-25 06:00:00 19.5 6 Este 11 Noroeste 0 -- -- 69
2020-05-25 05:00:00 20.6 6 Nordeste 8 Nordeste 0 -- -- 64
2020-05-25 04:00:00 21.1 3 Este 6 Norte 0 -- -- 63
2020-05-25 03:00:00 21.1 5 Norte 9 Norte 0 -- -- 63
2020-05-25 02:00:00 21.5 5 Norte 12 Noroeste 0 -- -- 64
2020-05-25 01:00:00 21.8 11 Noroeste 13 Noroeste 0 -- -- 63
2020-05-25 00:00:00 23.7 5 Sudeste 10 Norte 0 -- -- 59
2020-05-24 23:00:00 25.8 11 Norte 15 Norte 0 -- -- 49
2020-05-24 22:00:00 26.9 14 Norte 21 Norte 0 -- -- 47
2020-05-24 21:00:00 28.1 10 Norte 18 Noroeste 0 -- -- 45
2020-05-24 20:00:00 31 12 Oeste 15 Oeste 0 -- -- 37
2020-05-24 19:00:00 31.5 13 Oeste 24 Noroeste 0 -- -- 29
2020-05-24 18:00:00 31.9 16 Noroeste 26 Noroeste 0 -- -- 32
2020-05-24 17:00:00 32.4 10 Oeste 21 Oeste 0 -- -- 31
2020-05-24 16:00:00 31.9 5 Oeste 16 Oeste 0 -- -- 34
2020-05-24 15:00:00 31.5 4 Sudeste 16 Sudeste 0 -- -- 39
2020-05-24 14:00:00 30.6 3 Sudoeste 14 Sur 0 -- -- 42
2020-05-24 13:00:00 29.5 5 Este 16 Este 0 -- -- 46
2020-05-24 12:00:00 28 9 Este 16 Este 0 -- -- 49
2020-05-24 11:00:00 26.6 9 Este 16 Este 0 -- -- 52
2020-05-24 10:00:00 25 8 Sudeste 14 Este 0 -- -- 57
2020-05-24 09:00:00 22.6 12 Este 15 Este 0 -- -- 63
2020-05-24 08:00:00 19.7 0 Calma 8 Nordeste 0 -- -- 67
2020-05-24 07:00:00 18.6 5 Nordeste 18 Nordeste 0 -- -- 67
2020-05-24 06:00:00 18.8 6 Nordeste 9 Nordeste 0 -- -- 68
2020-05-24 05:00:00 18.9 6 Nordeste 9 Nordeste 0 -- -- 69
2020-05-24 04:00:00 20.6 8 Nordeste 12 Este 0 -- -- 63
2020-05-24 03:00:00 20.8 2 Sudeste 22 Noroeste 0 -- -- 61
2020-05-24 02:00:00 24.2 17 Noroeste 23 Noroeste 0 -- -- 50
2020-05-24 01:00:00 24.1 19 Noroeste 27 Noroeste 0 -- -- 50
2020-05-24 00:00:00 24.4 19 Noroeste 26 Noroeste 0 -- -- 51
2020-05-23 23:00:00 24.6 15 Noroeste 22 Noroeste 0 -- -- 50
2020-05-23 22:00:00 24.4 14 Norte 16 Norte 0 -- -- 52
2020-05-23 21:00:00 27.6 10 Noroeste 19 Oeste 0 -- -- 46
2020-05-23 20:00:00 29.9 12 Oeste 25 Noroeste 0 -- -- 39
2020-05-23 19:00:00 30.7 14 Noroeste 24 Oeste 0 -- -- 34
2020-05-23 18:00:00 31.1 14 Oeste 23 Oeste 0 -- -- 36
2020-05-23 17:00:00 30.8 13 Noroeste 22 Noroeste 0 -- -- 38
2020-05-23 16:00:00 30.4 8 Noroeste 27 Noroeste 0 -- -- 35
2020-05-23 15:00:00 29.8 9 Noroeste 22 Noroeste 0 -- -- 36
2020-05-23 14:00:00 29.1 9 Oeste 23 Oeste 0 -- -- 43
2020-05-23 13:00:00 27.9 11 Noroeste 15 Noroeste 0 -- -- 45
2020-05-23 12:00:00 26.5 5 Sudoeste 10 Sudoeste 0 -- -- 53
2020-05-23 11:00:00 24.7 4 Noroeste 8 Este 0 -- -- 54
2020-05-23 10:00:00 23.6 5 Este 9 Sudeste 0 -- -- 60
2020-05-23 09:00:00 21.1 6 Nordeste 11 Nordeste 0 -- -- 64
2020-05-23 08:00:00 18.2 7 Nordeste 12 Noroeste 0 -- -- 64
2020-05-23 07:00:00 16.9 2 Este 17 Noroeste 0 -- -- 66
2020-05-23 06:00:00 18.5 5 Norte 20 Noroeste 0 -- -- 56
2020-05-23 05:00:00 19 17 Noroeste 22 Noroeste 0 -- -- 63
2020-05-23 04:00:00 20.2 13 Noroeste 25 Noroeste 0 -- -- 56
2020-05-23 03:00:00 22 19 Noroeste 28 Noroeste 0 -- -- 54
2020-05-23 02:00:00 21.6 17 Noroeste 26 Noroeste 0 -- -- 44
2020-05-23 01:00:00 23.6 18 Noroeste 25 Noroeste 0 -- -- 40
2020-05-23 00:00:00 24.1 19 Noroeste 25 Noroeste 0 -- -- 42
2020-05-22 23:00:00 24.1 19 Noroeste 26 Noroeste 0 -- -- 44
2020-05-22 22:00:00 24.5 17 Noroeste 21 Noroeste 0 -- -- 49
2020-05-22 21:00:00 26.9 10 Noroeste 13 Noroeste 0 -- -- 50
2020-05-22 20:00:00 29.5 9 Noroeste 15 Noroeste 0 -- -- 33
2020-05-22 19:00:00 29.9 11 Noroeste 17 Noroeste 0 -- -- 32
2020-05-22 18:00:00 30.7 4 Nordeste 15 Oeste 0 -- -- 32
2020-05-22 17:00:00 30.8 5 Oeste 18 Sudeste 0 -- -- 36
2020-05-22 16:00:00 30.3 5 Oeste 14 Sudoeste 0 -- -- 36
2020-05-22 15:00:00 29.4 8 Oeste 18 Oeste 0 -- -- 32
2020-05-22 14:00:00 28.9 4 Oeste 19 Sur 0 -- -- 35
2020-05-22 13:00:00 28.1 6 Sur 13 Sur 0 -- -- 43
2020-05-22 12:00:00 27.1 5 Sur 13 Sudeste 0 -- -- 45
2020-05-22 11:00:00 25.7 4 Sudeste 9 Sudeste 0 -- -- 48
2020-05-22 10:00:00 23.2 2 Este 7 Noroeste 0 -- -- 55
2020-05-22 09:00:00 21.2 4 Norte 10 Este 0 -- -- 56
2020-05-22 08:00:00 17.6 5 Este 9 Este 0 -- -- 64
2020-05-22 07:00:00 15.9 5 Norte 11 Noroeste 0 -- -- 66
2020-05-22 06:00:00 16.4 3 Nordeste 9 Este 0 -- -- 62
2020-05-22 05:00:00 19.5 7 Este 17 Norte 0 -- -- 50
2020-05-22 04:00:00 20.6 15 Noroeste 21 Noroeste 0 -- -- 47
2020-05-22 03:00:00 21.9 18 Noroeste 26 Noroeste 0 -- -- 44
2020-05-22 02:00:00 21.4 22 Noroeste 32 Noroeste 0 -- -- 48
2020-05-22 01:00:00 22.2 22 Noroeste 29 Noroeste 0 -- -- 43
2020-05-22 00:00:00 22 23 Noroeste 29 Noroeste 0 -- -- 45
2020-05-21 23:00:00 22.7 21 Noroeste 25 Norte 0 -- -- 45
2020-05-21 22:00:00 23.3 15 Noroeste 18 Noroeste 0 -- -- 50
2020-05-21 21:00:00 25.7 9 Noroeste 21 Oeste 0 -- -- 50
2020-05-21 20:00:00 28 14 Noroeste 23 Noroeste 0 -- -- 42
2020-05-21 19:00:00 28.9 14 Noroeste 21 Noroeste 0 -- -- 39
2020-05-21 18:00:00 29.7 11 Noroeste 19 Noroeste 0 -- -- 37
2020-05-21 17:00:00 30.5 10 Sudoeste 17 Sudoeste 0 -- -- 34
2020-05-21 16:00:00 30 10 Sudoeste 24 Sudoeste 0 -- -- 33
2020-05-21 15:00:00 29.7 7 Sudoeste 22 Oeste 0 -- -- 38
2020-05-21 14:00:00 28.7 10 Oeste 18 Sudoeste 0 -- -- 40
2020-05-21 13:00:00 27.9 8 Oeste 15 Oeste 0 -- -- 41
2020-05-21 12:00:00 26.6 7 Oeste 13 Oeste 0 -- -- 50
2020-05-21 11:00:00 25 4 Sur 9 Sudeste 0 -- -- 55
2020-05-21 10:00:00 23.4 3 Sur 6 Sudeste 0 -- -- 58
2020-05-21 09:00:00 21.3 2 Este 6 Este 0 -- -- 64
2020-05-21 08:00:00 17.7 5 Nordeste 13 Nordeste 0 -- -- 75
2020-05-21 07:00:00 16.4 9 Nordeste 13 Nordeste 0 -- -- 78
2020-05-21 06:00:00 18 6 Este 16 Noroeste 0 -- -- 67
2020-05-21 05:00:00 19.1 14 Noroeste 23 Noroeste 0 -- -- 65
2020-05-21 04:00:00 17.6 18 Noroeste 22 Noroeste 0 -- -- 69
2020-05-21 03:00:00 20.6 17 Noroeste 27 Noroeste 0 -- -- 60
2020-05-21 02:00:00 20.9 21 Noroeste 32 Noroeste 0 -- -- 57
2020-05-21 01:00:00 21.2 24 Noroeste 32 Noroeste 0 -- -- 56
2020-05-21 00:00:00 22 20 Noroeste 32 Noroeste 0 -- -- 51
2020-05-20 23:00:00 22.7 21 Noroeste 32 Noroeste 0 -- -- 52
2020-05-20 22:00:00 22.8 16 Noroeste 22 Noroeste 0 -- -- 52
2020-05-20 21:00:00 26.1 10 Oeste 18 Oeste 0 -- -- 41
2020-05-20 20:00:00 28.4 14 Oeste 25 Oeste 0 -- -- 34
2020-05-20 19:00:00 29.4 11 Oeste 18 Noroeste 0 -- -- 30
2020-05-20 18:00:00 29.3 13 Oeste 24 Noroeste 0 -- -- 31
2020-05-20 17:00:00 29.3 16 Oeste 27 Oeste 0 -- -- 32
2020-05-20 16:00:00 29.2 10 Sudoeste 23 Oeste 0 -- -- 31
2020-05-20 15:00:00 28.8 16 Oeste 28 Oeste 0 -- -- 33
2020-05-20 14:00:00 28.3 9 Oeste 23 Sudoeste 0 -- -- 35
2020-05-20 13:00:00 26.8 7 Oeste 15 Sudoeste 0 -- -- 42
2020-05-20 12:00:00 25.9 7 Sudoeste 12 Sudoeste 0 -- -- 47
2020-05-20 11:00:00 25 4 Sur 8 Sudeste 0 -- -- 49
2020-05-20 10:00:00 23 6 Este 10 Este 0 -- -- 54
2020-05-20 09:00:00 20.4 5 Este 10 Este 0 -- -- 61
2020-05-20 08:00:00 16.7 3 Este 6 Nordeste 0 -- -- 71
2020-05-20 07:00:00 15 4 Nordeste 9 Noroeste 0 -- -- 71
2020-05-20 06:00:00 15.8 8 Noroeste 10 Nordeste 0 -- -- 67
2020-05-20 05:00:00 16.9 10 Nordeste 14 Este 0 -- -- 62
2020-05-20 04:00:00 19.3 8 Nordeste 15 Norte 0 -- -- 51
2020-05-20 03:00:00 17.3 10 Noroeste 15 Norte 0 -- -- 63
2020-05-20 02:00:00 20.4 14 Norte 18 Noroeste 0 -- -- 49
2020-05-20 01:00:00 20.8 15 Noroeste 17 Noroeste 0 -- -- 50
2020-05-20 00:00:00 20.9 13 Noroeste 17 Noroeste 0 -- -- 53
2020-05-19 23:00:00 21.3 14 Noroeste 18 Noroeste 0 -- -- 53
2020-05-19 22:00:00 21.1 14 Noroeste 17 Noroeste 0 -- -- 53
2020-05-19 21:00:00 24.1 8 Noroeste 13 Noroeste 0 -- -- 47
2020-05-19 20:00:00 26.8 10 Oeste 14 Noroeste 0 -- -- 38
2020-05-19 19:00:00 27.5 9 Noroeste 18 Noroeste 0 -- -- 37
2020-05-19 18:00:00 28.6 8 Oeste 18 Oeste 0 -- -- 33
2020-05-19 17:00:00 28.4 12 Oeste 20 Oeste 0 -- -- 34
2020-05-19 16:00:00 27.7 7 Oeste 21 Oeste 0 -- -- 34
2020-05-19 15:00:00 27.6 8 Sudoeste 19 Sudoeste 0 -- -- 32
2020-05-19 14:00:00 26.7 5 Sur 14 Sudeste 0 -- -- 38
2020-05-19 13:00:00 25.7 6 Sudeste 12 Este 0 -- -- 48
2020-05-19 12:00:00 24.7 7 Sudeste 12 Sudeste 0 -- -- 45
2020-05-19 11:00:00 23.2 6 Sudeste 12 Sudeste 0 -- -- 48
2020-05-19 10:00:00 21.1 6 Sudeste 10 Sudeste 0 -- -- 55
2020-05-19 09:00:00 19.3 9 Este 12 Este 0 -- -- 55
2020-05-19 08:00:00 15.9 8 Este 12 Nordeste 0 -- -- 62
2020-05-19 07:00:00 12.8 8 Nordeste 9 Nordeste 0 -- -- 73
2020-05-19 06:00:00 14.8 4 Nordeste 12 Nordeste 0 -- -- 61
2020-05-19 05:00:00 15.4 12 Nordeste 17 Nordeste 0 -- -- 58
2020-05-19 04:00:00 14.5 5 Nordeste 12 Noroeste 0 -- -- 64
2020-05-19 03:00:00 17.4 9 Noroeste 15 Noroeste 0 -- -- 57
2020-05-19 02:00:00 18.7 8 Noroeste 12 Noroeste 0 -- -- 47
2020-05-19 01:00:00 19.4 6 Noroeste 10 Norte 0 -- -- 46
2020-05-19 00:00:00 19.4 3 Noroeste 14 Noroeste 0 -- -- 43
2020-05-18 23:00:00 19.5 13 Noroeste 17 Noroeste 0 -- -- 45
2020-05-18 22:00:00 19.5 12 Noroeste 14 Oeste 0 -- -- 55
2020-05-18 21:00:00 23.6 13 Oeste 19 Noroeste 0 -- -- 39
2020-05-18 20:00:00 25.3 14 Oeste 22 Oeste 0 -- -- 36
2020-05-18 19:00:00 26.1 14 Oeste 22 Oeste 0 -- -- 36
2020-05-18 18:00:00 26.1 12 Noroeste 23 Noroeste 0 -- -- 35
2020-05-18 17:00:00 26.1 13 Noroeste 24 Noroeste 0 -- -- 36
2020-05-18 16:00:00 25.8 12 Sudoeste 20 Oeste 0 -- -- 34
2020-05-18 15:00:00 25 7 Noroeste 26 Oeste 0 -- -- 39
2020-05-18 14:00:00 24.4 8 Sudoeste 19 Sudoeste 0 -- -- 41
2020-05-18 13:00:00 23.3 8 Sudoeste 15 Sudoeste 0 -- -- 41
2020-05-18 12:00:00 22.4 8 Sur 12 Sur 0 -- -- 47
2020-05-18 11:00:00 21.2 5 Sudeste 12 Sudeste 0 -- -- 54
2020-05-18 10:00:00 19.7 5 Este 9 Este 0 -- -- 54
2020-05-18 09:00:00 16.1 4 Noroeste 7 Noroeste 0 -- -- 63
2020-05-18 08:00:00 12.9 2 Nordeste 9 Oeste 0 -- -- 73
2020-05-18 07:00:00 11.9 6 Norte 12 Nordeste 0 -- -- 72
2020-05-18 06:00:00 11.8 9 Nordeste 10 Nordeste 0 -- -- 73
2020-05-18 05:00:00 12.1 6 Nordeste 10 Nordeste 0 -- -- 74
2020-05-18 04:00:00 14 6 Sudeste 15 Norte 0 -- -- 69
2020-05-18 03:00:00 14.9 13 Nordeste 15 Nordeste 0 -- -- 67
2020-05-18 02:00:00 15.5 8 Norte 14 Noroeste 0 -- -- 62
2020-05-18 01:00:00 16.5 9 Nordeste 17 Norte 0 -- -- 55
2020-05-18 00:00:00 17.5 9 Norte 26 Norte 0 -- -- 50
2020-05-17 23:00:00 17.6 20 Norte 24 Norte 0 -- -- 51
2020-05-17 22:00:00 17.3 7 Noroeste 17 Norte 0 -- -- 54
2020-05-17 21:00:00 20.5 12 Norte 16 Norte 0 -- -- 42
2020-05-17 20:00:00 22.2 14 Noroeste 21 Noroeste 0 -- -- 35
2020-05-17 19:00:00 23.1 11 Noroeste 22 Oeste 0 -- -- 41
2020-05-17 18:00:00 23.2 13 Noroeste 22 Oeste 0 -- -- 38
2020-05-17 17:00:00 23.1 11 Noroeste 21 Noroeste 0 -- -- 38
2020-05-17 16:00:00 22.5 10 Noroeste 21 Noroeste 0 -- -- 41
2020-05-17 15:00:00 20.9 10 Noroeste 16 Noroeste 0 -- -- 46
2020-05-17 14:00:00 21.6 4 Sur 12 Sudeste 0 -- -- 51
2020-05-17 13:00:00 20.9 4 Sudeste 22 Este 0 -- -- 62
2020-05-17 12:00:00 20.7 11 Este 20 Este 0 -- -- 62
2020-05-17 11:00:00 19.6 9 Este 15 Nordeste 0 -- -- 68
2020-05-17 10:00:00 18.2 9 Este 12 Este 0 -- -- 72
2020-05-17 09:00:00 16.6 4 Este 9 Este 0 -- -- 76
2020-05-17 08:00:00 13.2 0 Calma 7 Norte 0 -- -- 85
2020-05-17 07:00:00 11.5 5 Norte 9 Nordeste 0 -- -- 88
2020-05-17 06:00:00 11.8 6 Nordeste 8 Nordeste 0 -- -- 88
2020-05-17 05:00:00 12.3 6 Nordeste 8 Nordeste 0 -- -- 85
2020-05-17 04:00:00 12.6 8 Norte 12 Norte 0 -- -- 86
2020-05-17 03:00:00 12.8 12 Norte 14 Norte 0 -- -- 84
2020-05-17 02:00:00 14.1 9 Nordeste 12 Este 0 -- -- 79
2020-05-17 01:00:00 14.6 4 Norte 6 Norte 0 -- -- 79
2020-05-17 00:00:00 15.8 8 Nordeste 15 Nordeste 0 -- -- 76
2020-05-16 23:00:00 16.7 9 Nordeste 19 Nordeste 0 -- -- 69
2020-05-16 22:00:00 16.6 10 Norte 18 Nordeste 0 -- -- 72
2020-05-16 21:00:00 17.6 11 Norte 18 Norte 0 -- -- 73
2020-05-16 20:00:00 20.1 10 Noroeste 21 Noroeste 0 -- -- 65
2020-05-16 19:00:00 19.3 9 Noroeste 14 Noroeste 0 -- -- 69
2020-05-16 18:00:00 18.9 8 Noroeste 12 Noroeste 0 -- -- 71
2020-05-16 17:00:00 16.1 10 Nordeste 26 Este 1.8 -- -- 83
2020-05-16 16:00:00 18.5 16 Norte 23 Norte 0.2 -- -- 73
2020-05-16 15:00:00 20.3 10 Noroeste 19 Noroeste 0 -- -- 59
2020-05-16 14:00:00 20.2 9 Este 21 Sur 0 -- -- 64
2020-05-16 13:00:00 19.4 10 Este 22 Sudeste 0 -- -- 65
2020-05-16 12:00:00 18.4 12 Este 24 Este 0 -- -- 69
2020-05-16 11:00:00 17 13 Este 20 Este 0 -- -- 72
2020-05-16 10:00:00 14.5 4 Sudoeste 8 Este 0 -- -- 88
2020-05-16 09:00:00 11.7 4 Este 9 Nordeste 0 -- -- 96
2020-05-16 08:00:00 10.6 7 Nordeste 9 Nordeste 0 -- -- 94
2020-05-16 07:00:00 10.5 2 Noroeste 11 Noroeste 0 -- -- 90
2020-05-16 06:00:00 10.6 7 Noroeste 13 Noroeste 0 -- -- 90
2020-05-16 05:00:00 10.7 9 Noroeste 12 Noroeste 0 -- -- 92
2020-05-16 04:00:00 11.2 3 Sudeste 9 Nordeste 0 -- -- 93
2020-05-16 03:00:00 10.5 8 Nordeste 11 Nordeste 0 -- -- 91
2020-05-16 02:00:00 11.5 4 Nordeste 10 Este 0 -- -- 88
2020-05-16 01:00:00 12.3 6 Nordeste 11 Nordeste 0 -- -- 89
2020-05-16 00:00:00 12.9 9 Nordeste 15 Nordeste 0 -- -- 86
2020-05-15 23:00:00 11.8 3 Nordeste 9 Nordeste 0 -- -- 89
2020-05-15 22:00:00 12.3 4 Norte 8 Noroeste 0 -- -- 91
2020-05-15 21:00:00 13.5 4 Noroeste 14 Noroeste 0 -- -- 90
2020-05-15 20:00:00 13.4 7 Noroeste 15 Norte 0 -- -- 90
2020-05-15 19:00:00 13.3 10 Nordeste 13 Nordeste 2.4 -- -- 88
2020-05-15 18:00:00 12.1 10 Nordeste 41 Este 10.2 -- -- 93
2020-05-15 17:00:00 13.1 28 Este 42 Este 0.2 -- -- 87
2020-05-15 16:00:00 18.8 15 Oeste 23 Oeste 0 -- -- 67
2020-05-15 15:00:00 16.7 11 Noroeste 18 Noroeste 0 -- -- 72
2020-05-15 14:00:00 16.2 10 Noroeste 17 Noroeste 0 -- -- 75
2020-05-15 13:00:00 15.7 3 Sudoeste 10 Sudoeste 0 -- -- 77
2020-05-15 12:00:00 15.5 6 Sudeste 13 Sur 0 -- -- 79
2020-05-15 11:00:00 15.1 8 Sudeste 14 Sudeste 0 -- -- 79
2020-05-15 10:00:00 14.2 7 Este 12 Nordeste 0.2 -- -- 84
2020-05-15 09:00:00 12.5 8 Nordeste 13 Este 0 -- -- 86
2020-05-15 08:00:00 12 8 Nordeste 17 Nordeste 0 -- -- 88
2020-05-15 07:00:00 11.5 12 Nordeste 18 Nordeste 0 -- -- 89
2020-05-15 06:00:00 11.4 12 Nordeste 19 Nordeste 0 -- -- 90
2020-05-15 05:00:00 10.8 12 Nordeste 18 Este 0 -- -- 92
2020-05-15 04:00:00 11 12 Nordeste 15 Nordeste 0 -- -- 93
2020-05-15 03:00:00 11.5 12 Este 17 Este 0 -- -- 92
2020-05-15 02:00:00 12 11 Este 19 Este 0 -- -- 91
2020-05-15 01:00:00 12 13 Este 18 Este 0 -- -- 93
2020-05-15 00:00:00 12.1 11 Este 22 Este 0 -- -- 92
2020-05-14 23:00:00 12.6 12 Este 22 Nordeste 0 -- -- 92
2020-05-14 22:00:00 12.5 15 Nordeste 23 Nordeste 0 -- -- 92
2020-05-14 21:00:00 12.9 16 Sudeste 28 Sudeste 0 -- -- 91
2020-05-14 20:00:00 13.9 17 Este 24 Nordeste 0 -- -- 88
2020-05-14 19:00:00 13.2 16 Nordeste 22 Este 1 -- -- 91
2020-05-14 18:00:00 13.2 15 Este 25 Este 5.8 -- -- 94
2020-05-14 17:00:00 13.4 17 Este 29 Nordeste 1 -- -- 87
2020-05-14 16:00:00 12.8 16 Este 30 Este 1 -- -- 92
2020-05-14 15:00:00 13.9 21 Este 32 Este 0 -- -- 88
2020-05-14 14:00:00 12.5 18 Este 30 Este 0.4 -- -- 95
2020-05-14 13:00:00 11.7 14 Este 26 Sudeste 0.2 -- -- 93
2020-05-14 12:00:00 12.4 17 Sudeste 25 Sudeste 0.2 -- -- 87
2020-05-14 11:00:00 11.9 14 Sudeste 23 Este 0 -- -- 93
2020-05-14 10:00:00 11.1 15 Este 20 Este 0 -- -- 92
2020-05-14 09:00:00 10.3 13 Este 18 Este 0 -- -- 95
2020-05-14 08:00:00 10 9 Este 13 Este 0 -- -- 96
2020-05-14 07:00:00 9.9 9 Este 11 Este 0 -- -- 95
2020-05-14 06:00:00 10 6 Nordeste 7 Nordeste 0 -- -- 96
2020-05-14 05:00:00 10 2 Este 6 Nordeste 0 -- -- 96
2020-05-14 04:00:00 9.8 0 Calma 9 Oeste 0 -- -- 95
2020-05-14 03:00:00 9.9 7 Oeste 14 Sudoeste 0.2 -- -- 95
2020-05-14 02:00:00 10.1 8 Oeste 33 Sudoeste 2.2 -- -- 96
2020-05-14 01:00:00 11.3 21 Sudoeste 30 Sudoeste 1.2 -- -- 93
2020-05-14 00:00:00 12.7 4 Sudeste 11 Este 0 -- -- 94
2020-05-13 23:00:00 12.6 5 Norte 25 Sudoeste 0.2 -- -- 93
2020-05-13 22:00:00 13.5 11 Oeste 25 Sudoeste 0 -- -- 86
2020-05-13 21:00:00 13.7 14 Nordeste 20 Nordeste 0 -- -- 81
2020-05-13 20:00:00 13.7 7 Nordeste 12 Norte 0.4 -- -- 89
2020-05-13 19:00:00 13.6 9 Oeste 46 Sudeste 3.2 -- -- 89
2020-05-13 18:00:00 17.5 14 Este 31 Este 0 -- -- 62
2020-05-13 17:00:00 18 20 Este 30 Este 0 -- -- 56
2020-05-13 16:00:00 18.6 17 Sudeste 26 Sudeste 0 -- -- 54
2020-05-13 15:00:00 17.8 14 Sur 24 Sudeste 0 -- -- 60
2020-05-13 14:00:00 17.1 18 Sudeste 35 Sudeste 0 -- -- 60
2020-05-13 13:00:00 17.1 16 Sudeste 27 Sudeste 0 -- -- 67
2020-05-13 12:00:00 15.1 8 Sudeste 20 Sur 0 -- -- 81
2020-05-13 11:00:00 13.7 13 Sur 21 Sur 0 -- -- 80
2020-05-13 10:00:00 13.1 9 Sur 20 Sur 0 -- -- 89
2020-05-13 09:00:00 12.5 7 Sudoeste 13 Sudoeste 0 -- -- 95
2020-05-13 08:00:00 11.5 4 Sudeste 11 Sudoeste 0 -- -- 95
2020-05-13 07:00:00 11.6 7 Sur 18 Sur 0 -- -- 94
2020-05-13 06:00:00 11.6 4 Este 7 Sudeste 0 -- -- 94
2020-05-13 05:00:00 11.5 4 Este 10 Este 0 -- -- 92
2020-05-13 04:00:00 11.2 7 Nordeste 12 Este 0 -- -- 93
2020-05-13 03:00:00 10.6 9 Este 16 Este 0 -- -- 92
2020-05-13 02:00:00 10.4 8 Nordeste 13 Este 0 -- -- 91
2020-05-13 01:00:00 10.9 9 Nordeste 14 Nordeste 0 -- -- 90
2020-05-13 00:00:00 11.2 10 Nordeste 12 Nordeste 0 -- -- 93
2020-05-12 23:00:00 11 8 Este 10 Nordeste 0 -- -- 96
2020-05-12 22:00:00 10.9 8 Este 11 Este 0 -- -- 95
2020-05-12 21:00:00 11.9 8 Sudeste 12 Este 0 -- -- 95
2020-05-12 20:00:00 12.1 8 Nordeste 12 Nordeste 0.4 -- -- 94
2020-05-12 19:00:00 12.6 7 Este 10 Nordeste 1.4 -- -- 95
2020-05-12 18:00:00 12.7 6 Sudeste 12 Sudeste 1 -- -- 93
2020-05-12 17:00:00 13.3 8 Sudoeste 14 Sur 0.2 -- -- 87
2020-05-12 16:00:00 13.4 4 Sur 16 Sudoeste 0.4 -- -- 91
2020-05-12 15:00:00 13 10 Sudoeste 21 Sur 1 -- -- 92
2020-05-12 14:00:00 12.7 14 Sudeste 42 Sur 7.4 -- -- 95
2020-05-12 13:00:00 15.4 18 Este 29 Sudeste 0 -- -- 79
2020-05-12 12:00:00 16.1 15 Sudeste 26 Este 0 -- -- 82
2020-05-12 11:00:00 14.8 11 Sudeste 24 Sudeste 0 -- -- 87
2020-05-12 10:00:00 14.3 14 Este 24 Este 0 -- -- 91
2020-05-12 09:00:00 13.8 10 Este 20 Nordeste 0 -- -- 92
2020-05-12 08:00:00 13.2 15 Nordeste 19 Nordeste 0 -- -- 90
2020-05-12 07:00:00 13.1 12 Este 18 Este 0 -- -- 90
2020-05-12 06:00:00 13.1 13 Nordeste 21 Nordeste 0 -- -- 89
2020-05-12 05:00:00 12.7 10 Este 17 Este 0 -- -- 91
2020-05-12 04:00:00 12.7 8 Norte 12 Norte 0 -- -- 88
2020-05-12 03:00:00 13.2 3 Sur 16 Norte 0 -- -- 89
2020-05-12 02:00:00 13.7 4 Sur 17 Noroeste 0 -- -- 87
2020-05-12 01:00:00 13.8 11 Noroeste 15 Noroeste 0 -- -- 85
2020-05-12 00:00:00 13.5 10 Noroeste 14 Noroeste 0 -- -- 86
2020-05-11 23:00:00 14.6 12 Oeste 20 Oeste 0 -- -- 82
2020-05-11 22:00:00 14.8 15 Oeste 19 Oeste 0 -- -- 81
2020-05-11 21:00:00 16.8 12 Sudoeste 25 Oeste 0 -- -- 78
2020-05-11 20:00:00 18.3 19 Sudoeste 32 Oeste 0 -- -- 75
2020-05-11 19:00:00 17.4 19 Sudoeste 30 Oeste 0 -- -- 81
2020-05-11 18:00:00 16.8 17 Sudoeste 27 Sudoeste 1.4 -- -- 87
2020-05-11 17:00:00 16.5 13 Oeste 34 Sudoeste 0.6 -- -- 83
2020-05-11 16:00:00 16 14 Oeste 27 Sudoeste 0.6 -- -- 88
2020-05-11 15:00:00 16 8 Oeste 22 Sudoeste 1.4 -- -- 88
2020-05-11 14:00:00 15.5 17 Sudoeste 35 Sudoeste 0.4 -- -- 94
2020-05-11 13:00:00 14.9 9 Sudoeste 27 Noroeste 2.8 -- -- 95
2020-05-11 12:00:00 15.1 8 Sur 21 Sudeste 0 -- -- 84
2020-05-11 11:00:00 13.8 13 Sur 22 Sur 0.2 -- -- 92
2020-05-11 10:00:00 12.8 8 Este 15 Este 0 -- -- 96
2020-05-11 09:00:00 12.1 10 Este 14 Sudeste 1.4 -- -- 96
2020-05-11 08:00:00 11.8 7 Sudeste 16 Sudeste 2.4 -- -- 95
2020-05-11 07:00:00 12.4 11 Sudeste 14 Este 0.2 -- -- 92
2020-05-11 06:00:00 12.6 9 Este 12 Este 0 -- -- 89
2020-05-11 05:00:00 12 3 Nordeste 13 Sudoeste 0 -- -- 92
2020-05-11 04:00:00 12.5 4 Noroeste 12 Oeste 0 -- -- 88
2020-05-11 03:00:00 12.6 9 Oeste 25 Oeste 0 -- -- 86
2020-05-11 02:00:00 13.2 12 Sudoeste 25 Sudoeste 0 -- -- 87
2020-05-11 01:00:00 13.6 7 Oeste 14 Oeste 0 -- -- 83
2020-05-11 00:00:00 14 9 Oeste 21 Sudoeste 0 -- -- 82
2020-05-10 23:00:00 14.4 16 Oeste 29 Oeste 0 -- -- 77
2020-05-10 22:00:00 14.7 13 Sudoeste 32 Sudoeste 0 -- -- 74
2020-05-10 21:00:00 15.9 12 Oeste 31 Oeste 0 -- -- 61
2020-05-10 20:00:00 18 21 Oeste 35 Oeste 0 -- -- 50
2020-05-10 19:00:00 18.3 23 Oeste 39 Oeste 0 -- -- 54
2020-05-10 18:00:00 18.1 22 Oeste 35 Oeste 0 -- -- 59
2020-05-10 17:00:00 16.6 25 Noroeste 44 Oeste 0 -- -- 68
2020-05-10 16:00:00 17.2 21 Oeste 44 Sudoeste 0 -- -- 62
2020-05-10 15:00:00 14.9 13 Sudoeste 53 Sudoeste 1.2 -- -- 80
2020-05-10 14:00:00 14.8 17 Oeste 33 Sudoeste 0.2 -- -- 79
2020-05-10 13:00:00 13.9 19 Oeste 32 Oeste 0 -- -- 77
2020-05-10 12:00:00 14.3 15 Sudoeste 28 Sudoeste 0 -- -- 79
2020-05-10 11:00:00 12.7 19 Sudoeste 29 Sudoeste 0 -- -- 83
2020-05-10 10:00:00 11.7 18 Sur 35 Sudoeste 2.4 -- -- 94
2020-05-10 09:00:00 11.7 6 Sur 12 Sudoeste 0 -- -- 96
2020-05-10 08:00:00 11.1 7 Sudoeste 10 Sudoeste 0 -- -- 96
2020-05-10 07:00:00 10.6 2 Sur 4 Sudeste 0 -- -- 96
2020-05-10 06:00:00 10.6 2 Sudeste 9 Sudoeste 0 -- -- 96
2020-05-10 05:00:00 10.3 7 Sudoeste 10 Sudoeste 0.2 -- -- 96
2020-05-10 04:00:00 10.8 5 Oeste 7 Oeste 0 -- -- 95
2020-05-10 03:00:00 11.4 3 Noroeste 11 Noroeste 0 -- -- 96
2020-05-10 02:00:00 11.9 7 Oeste 9 Oeste 0 -- -- 94
2020-05-10 01:00:00 12.2 5 Oeste 8 Oeste 0 -- -- 95
2020-05-10 00:00:00 12.4 4 Oeste 8 Oeste 0 -- -- 92
2020-05-09 23:00:00 12.5 2 Sudoeste 14 Sur 0 -- -- 93
2020-05-09 22:00:00 13.2 13 Sur 19 Norte 0.8 -- -- 94
2020-05-09 21:00:00 13.2 9 Noroeste 15 Oeste 4.8 -- -- 93
2020-05-09 20:00:00 14 8 Sudoeste 17 Oeste 1.4 -- -- 83
2020-05-09 19:00:00 14.5 9 Noroeste 29 Noroeste 0.4 -- -- 74
2020-05-09 18:00:00 16.2 19 Noroeste 46 Oeste 0 -- -- 60
2020-05-09 17:00:00 21.1 17 Sudoeste 28 Sur 0 -- -- 43
2020-05-09 16:00:00 22 13 Sudeste 24 Sur 0 -- -- 43
2020-05-09 15:00:00 20.9 10 Sur 25 Sur 0 -- -- 50
2020-05-09 14:00:00 20.3 13 Sur 21 Sudeste 0 -- -- 58
2020-05-09 13:00:00 19 12 Sudeste 22 Sudeste 0 -- -- 67
2020-05-09 12:00:00 17.9 14 Sudeste 22 Sudeste 0 -- -- 70
2020-05-09 11:00:00 16.8 14 Sur 21 Sur 0 -- -- 80
2020-05-09 10:00:00 15.2 10 Sur 18 Sur 0 -- -- 90
2020-05-09 09:00:00 14.4 5 Sur 7 Sur 0 -- -- 94
2020-05-09 08:00:00 13.6 0 Calma 7 Este 0 -- -- 93
2020-05-09 07:00:00 13.6 4 Oeste 10 Sudoeste 0 -- -- 93
2020-05-09 06:00:00 14.1 6 Oeste 12 Sudoeste 0 -- -- 93
2020-05-09 05:00:00 13.9 6 Noroeste 17 Sudoeste 0 -- -- 91
2020-05-09 04:00:00 14.6 7 Oeste 10 Oeste 0 -- -- 89
2020-05-09 03:00:00 15.6 4 Sur 9 Sudoeste 0 -- -- 79
2020-05-09 02:00:00 16.4 8 Sudoeste 10 Sudoeste 0 -- -- 75
2020-05-09 01:00:00 16.5 8 Noroeste 11 Noroeste 0 -- -- 74
2020-05-09 00:00:00 16.8 8 Noroeste 17 Oeste 0 -- -- 72
2020-05-08 23:00:00 18.3 11 Noroeste 15 Noroeste 0 -- -- 66
2020-05-08 22:00:00 19.3 11 Noroeste 21 Noroeste 0 -- -- 62
2020-05-08 21:00:00 22.5 12 Oeste 25 Oeste 0 -- -- 50
2020-05-08 20:00:00 25.4 18 Oeste 27 Sudoeste 0 -- -- 39
2020-05-08 19:00:00 26.5 19 Sudoeste 30 Sudoeste 0 -- -- 33
2020-05-08 18:00:00 27.7 15 Sudoeste 48 Sudoeste 0 -- -- 30
2020-05-08 17:00:00 27.8 14 Sur 29 Sur 0 -- -- 35
2020-05-08 16:00:00 26.5 8 Este 23 Sudeste 0 -- -- 40
2020-05-08 15:00:00 26.2 12 Sudeste 27 Sur 0 -- -- 39
2020-05-08 14:00:00 25.4 10 Sur 23 Sur 0 -- -- 45
2020-05-08 13:00:00 24.4 10 Sur 20 Sudeste 0 -- -- 46
2020-05-08 12:00:00 23.3 13 Sudeste 22 Sudeste 0 -- -- 53
2020-05-08 11:00:00 21.9 9 Sudeste 17 Sudeste 0 -- -- 64
2020-05-08 10:00:00 20.2 11 Este 16 Este 0 -- -- 69
2020-05-08 09:00:00 18.8 4 Nordeste 6 Este 0 -- -- 67
2020-05-08 08:00:00 15.1 3 Noroeste 14 Norte 0 -- -- 77
2020-05-08 07:00:00 16.8 10 Norte 21 Norte 0 -- -- 71
2020-05-08 06:00:00 17.3 15 Norte 21 Norte 0 -- -- 72
2020-05-08 05:00:00 17 7 Noroeste 15 Noroeste 0 -- -- 73
2020-05-08 04:00:00 17.5 5 Oeste 10 Norte 0 -- -- 66
2020-05-08 03:00:00 17.7 5 Nordeste 14 Nordeste 0 -- -- 62
2020-05-08 02:00:00 18.3 11 Nordeste 14 Nordeste 0 -- -- 61
2020-05-08 01:00:00 19.3 9 Este 15 Sur 0 -- -- 58
2020-05-08 00:00:00 20.7 14 Sur 23 Sur 0 -- -- 54
2020-05-07 23:00:00 20.5 16 Sur 20 Sur 0 -- -- 50
2020-05-07 22:00:00 21.5 7 Sur 19 Sudeste 0 -- -- 49
2020-05-07 21:00:00 22.8 17 Sudeste 22 Sudeste 0 -- -- 47
2020-05-07 20:00:00 26.2 13 Este 24 Este 0 -- -- 48
2020-05-07 19:00:00 26.9 19 Nordeste 30 Nordeste 0 -- -- 42
2020-05-07 18:00:00 27 20 Nordeste 27 Nordeste 0 -- -- 40
2020-05-07 17:00:00 26.1 10 Nordeste 22 Nordeste 0 -- -- 40
2020-05-07 16:00:00 26.8 12 Nordeste 21 Este 0 -- -- 39
2020-05-07 15:00:00 25.9 8 Este 24 Sudeste 0 -- -- 41
2020-05-07 14:00:00 26 13 Este 26 Este 0 -- -- 44
2020-05-07 13:00:00 24.4 13 Este 32 Este 0 -- -- 46
2020-05-07 12:00:00 23.3 19 Este 32 Este 0 -- -- 45
2020-05-07 11:00:00 20.9 22 Este 29 Este 0 -- -- 52
2020-05-07 10:00:00 19.1 18 Este 27 Este 0 -- -- 52
2020-05-07 09:00:00 18.1 15 Este 23 Este 0 -- -- 52
2020-05-07 08:00:00 14.5 5 Norte 8 Norte 0 -- -- 68
2020-05-07 07:00:00 14.6 5 Noroeste 10 Noroeste 0 -- -- 63
2020-05-07 06:00:00 13.7 3 Noroeste 6 Norte 0 -- -- 70
2020-05-07 05:00:00 15.8 4 Oeste 8 Noroeste 0 -- -- 60
2020-05-07 04:00:00 13.6 6 Noroeste 7 Noroeste 0 -- -- 70
2020-05-07 03:00:00 14.4 5 Nordeste 6 Nordeste 0 -- -- 71
2020-05-07 02:00:00 16.6 2 Nordeste 7 Sudeste 0 -- -- 59
2020-05-07 01:00:00 18.1 4 Sudeste 11 Noroeste 0 -- -- 52
2020-05-07 00:00:00 17.8 12 Noroeste 29 Noroeste 0 -- -- 55
2020-05-06 23:00:00 19.2 21 Noroeste 27 Noroeste 0 -- -- 50
2020-05-06 22:00:00 18.7 15 Noroeste 19 Noroeste 0 -- -- 55
2020-05-06 21:00:00 19.2 14 Noroeste 16 Noroeste 0 -- -- 54
2020-05-06 20:00:00 21.8 12 Oeste 21 Oeste 0 -- -- 45
2020-05-06 19:00:00 23.5 14 Oeste 25 Noroeste 0 -- -- 36
2020-05-06 18:00:00 23.7 12 Oeste 23 Oeste 0 -- -- 39
2020-05-06 17:00:00 23.3 8 Noroeste 19 Noroeste 0 -- -- 42
2020-05-06 16:00:00 22.7 8 Oeste 20 Noroeste 0 -- -- 42
2020-05-06 15:00:00 22.6 8 Sudoeste 21 Oeste 0 -- -- 45
2020-05-06 14:00:00 21.8 10 Oeste 22 Oeste 0 -- -- 46
2020-05-06 13:00:00 20.8 13 Oeste 21 Oeste 0 -- -- 48
2020-05-06 12:00:00 20 9 Oeste 15 Noroeste 0 -- -- 57
2020-05-06 11:00:00 18.1 11 Noroeste 21 Noroeste 0 -- -- 69
2020-05-06 10:00:00 16 12 Oeste 17 Noroeste 0 -- -- 79
2020-05-06 09:00:00 14.1 9 Noroeste 13 Noroeste 0 -- -- 85
2020-05-06 08:00:00 12.4 9 Noroeste 17 Noroeste 0 -- -- 85
2020-05-06 07:00:00 13.1 15 Noroeste 21 Noroeste 0 -- -- 80
2020-05-06 06:00:00 14.1 17 Noroeste 26 Noroeste 0 -- -- 76
2020-05-06 05:00:00 14.7 19 Noroeste 24 Noroeste 0 -- -- 74
2020-05-06 04:00:00 14 15 Noroeste 26 Noroeste 0 -- -- 70
2020-05-06 03:00:00 13.4 16 Noroeste 19 Noroeste 0 -- -- 69
2020-05-06 02:00:00 14.9 15 Noroeste 19 Noroeste 0 -- -- 61
2020-05-06 01:00:00 14.3 14 Noroeste 16 Noroeste 0 -- -- 63
2020-05-06 00:00:00 15 13 Norte 14 Noroeste 0 -- -- 57
2020-05-05 23:00:00 14.7 12 Norte 15 Norte 0 -- -- 57
2020-05-05 22:00:00 15.7 12 Norte 17 Norte 0 -- -- 55
2020-05-05 21:00:00 18.5 10 Noroeste 21 Noroeste 0 -- -- 51
2020-05-05 20:00:00 20.7 15 Noroeste 20 Noroeste 0 -- -- 42
2020-05-05 19:00:00 21.9 15 Noroeste 22 Noroeste 0 -- -- 44
2020-05-05 18:00:00 21.9 10 Noroeste 19 Noroeste 0 -- -- 40
2020-05-05 17:00:00 22.4 10 Oeste 21 Sudoeste 0 -- -- 36
2020-05-05 16:00:00 21.6 13 Sudoeste 24 Oeste 0 -- -- 40
2020-05-05 15:00:00 21 12 Oeste 24 Sudoeste 0 -- -- 42
2020-05-05 14:00:00 19.4 9 Noroeste 16 Noroeste 0 -- -- 54
2020-05-05 13:00:00 19.1 8 Oeste 15 Oeste 0 -- -- 54
2020-05-05 12:00:00 17.6 3 Oeste 12 Sur 0 -- -- 58
2020-05-05 11:00:00 16.4 4 Oeste 11 Noroeste 0 -- -- 64
2020-05-05 10:00:00 14.7 5 Oeste 10 Oeste 0 -- -- 80
2020-05-05 09:00:00 13.4 2 Oeste 3 Noroeste 0 -- -- 84
2020-05-05 08:00:00 11.4 3 Nordeste 5 Norte 0 -- -- 88
2020-05-05 07:00:00 11.8 3 Sur 9 Oeste 0 -- -- 81
2020-05-05 06:00:00 11.9 9 Noroeste 15 Noroeste 0 -- -- 85
2020-05-05 05:00:00 11.5 13 Noroeste 15 Noroeste 0 -- -- 88
2020-05-05 04:00:00 12 9 Noroeste 14 Noroeste 0 -- -- 85
2020-05-05 03:00:00 13.3 14 Noroeste 22 Oeste 0 -- -- 80
2020-05-05 02:00:00 14.5 14 Noroeste 21 Noroeste 0 -- -- 74
2020-05-05 01:00:00 15.8 17 Noroeste 27 Noroeste 0 -- -- 69
2020-05-05 00:00:00 16.8 22 Noroeste 31 Noroeste 0 -- -- 68
2020-05-04 23:00:00 17.3 17 Noroeste 31 Noroeste 0 -- -- 70
2020-05-04 22:00:00 18.7 16 Noroeste 24 Oeste 0 -- -- 67
2020-05-04 21:00:00 21.1 15 Oeste 34 Oeste 0 -- -- 58
2020-05-04 20:00:00 22.5 20 Oeste 38 Oeste 0 -- -- 53
2020-05-04 19:00:00 24 25 Oeste 42 Oeste 0 -- -- 49
2020-05-04 18:00:00 24.7 31 Oeste 47 Oeste 0 -- -- 51
2020-05-04 17:00:00 27.9 28 Sudoeste 41 Sudoeste 0 -- -- 38
2020-05-04 16:00:00 27.1 22 Sudoeste 37 Sudoeste 0 -- -- 45
2020-05-04 15:00:00 26.2 24 Oeste 49 Sur 0 -- -- 45
2020-05-04 14:00:00 28.4 27 Sur 40 Sur 0 -- -- 34
2020-05-04 13:00:00 27.1 10 Sur 27 Nordeste 0 -- -- 40
2020-05-04 12:00:00 23.3 19 Nordeste 31 Nordeste 0 -- -- 47
2020-05-04 11:00:00 23.3 16 Este 29 Este 0 -- -- 47
2020-05-04 10:00:00 22.6 19 Nordeste 46 Este 0 -- -- 44
2020-05-04 09:00:00 22.8 26 Este 35 Este 0 -- -- 41
2020-05-04 08:00:00 23.3 25 Este 35 Nordeste 0 -- -- 36
2020-05-04 07:00:00 22.9 22 Este 31 Este 0 -- -- 37
2020-05-04 06:00:00 22.5 22 Este 28 Este 0 -- -- 39
2020-05-04 05:00:00 24.1 21 Este 27 Este 0 -- -- 36
2020-05-04 04:00:00 24.6 17 Nordeste 27 Este 0 -- -- 36
2020-05-04 03:00:00 24.7 18 Nordeste 26 Nordeste 0 -- -- 33
2020-05-04 02:00:00 24.5 18 Nordeste 27 Nordeste 0 -- -- 36
2020-05-04 01:00:00 24.2 18 Nordeste 25 Nordeste 0 -- -- 39
2020-05-04 00:00:00 24 18 Nordeste 24 Nordeste 0 -- -- 40
2020-05-03 23:00:00 24.2 17 Nordeste 24 Nordeste 0 -- -- 41
2020-05-03 22:00:00 25.2 17 Nordeste 23 Nordeste 0 -- -- 39
2020-05-03 21:00:00 25.8 14 Nordeste 21 Este 0 -- -- 40
2020-05-03 20:00:00 27.6 14 Este 24 Este 0 -- -- 40
2020-05-03 19:00:00 28.8 15 Este 25 Este 0 -- -- 39
2020-05-03 18:00:00 28.8 18 Este 24 Este 0 -- -- 36
2020-05-03 17:00:00 28.9 14 Este 25 Este 0 -- -- 40
2020-05-03 16:00:00 28.3 17 Este 27 Sudeste 0 -- -- 35
2020-05-03 15:00:00 27.7 17 Sudeste 27 Este 0 -- -- 43
2020-05-03 14:00:00 26.8 16 Este 25 Este 0 -- -- 47
2020-05-03 13:00:00 25.5 18 Este 27 Este 0 -- -- 49
2020-05-03 12:00:00 24.5 21 Este 30 Este 0 -- -- 47
2020-05-03 11:00:00 23.3 21 Este 27 Este 0 -- -- 55
2020-05-03 10:00:00 21.2 16 Este 25 Este 0 -- -- 64
2020-05-03 09:00:00 18.9 13 Este 18 Nordeste 0 -- -- 60
2020-05-03 08:00:00 15.9 8 Nordeste 17 Nordeste 0 -- -- 69
2020-05-03 07:00:00 14.9 11 Nordeste 14 Nordeste 0 -- -- 71
2020-05-03 06:00:00 15.5 11 Este 13 Este 0 -- -- 68
2020-05-03 05:00:00 16.1 10 Nordeste 12 Norte 0 -- -- 67
2020-05-03 04:00:00 15.8 10 Nordeste 13 Nordeste 0 -- -- 68
2020-05-03 03:00:00 15.4 8 Nordeste 11 Nordeste 0 -- -- 70
2020-05-03 02:00:00 15.8 8 Norte 12 Nordeste 0 -- -- 70
2020-05-03 01:00:00 16.8 10 Nordeste 13 Nordeste 0 -- -- 66
2020-05-03 00:00:00 18.6 11 Noroeste 14 Norte 0 -- -- 59
2020-05-02 23:00:00 18.8 11 Norte 15 Norte 0 -- -- 61
2020-05-02 22:00:00 18.5 11 Norte 13 Norte 0 -- -- 68
2020-05-02 21:00:00 22.5 9 Noroeste 13 Noroeste 0 -- -- 57
2020-05-02 20:00:00 25.3 6 Noroeste 14 Oeste 0 -- -- 47
2020-05-02 19:00:00 26.1 8 Sudoeste 21 Sudoeste 0 -- -- 43
2020-05-02 18:00:00 25.9 13 Sudoeste 20 Oeste 0 -- -- 49
2020-05-02 17:00:00 25.2 9 Sudoeste 18 Sudoeste 0 -- -- 52
2020-05-02 16:00:00 24.5 6 Sudoeste 15 Sudoeste 0 -- -- 56
2020-05-02 15:00:00 23.2 4 Oeste 15 Oeste 0 -- -- 63
2020-05-02 14:00:00 22.4 7 Sudoeste 15 Sudoeste 0 -- -- 69
2020-05-02 13:00:00 21.6 5 Sur 13 Sudoeste 0 -- -- 68
2020-05-02 12:00:00 20.7 3 Sudeste 10 Sudeste 0 -- -- 74
2020-05-02 11:00:00 19.2 6 Sudeste 11 Este 0 -- -- 79
2020-05-02 10:00:00 17.1 8 Sudeste 10 Este 0 -- -- 84
2020-05-02 09:00:00 14.9 8 Este 10 Nordeste 0 -- -- 89
2020-05-02 08:00:00 12.7 8 Nordeste 11 Noroeste 0 -- -- 93
2020-05-02 07:00:00 13 10 Noroeste 11 Noroeste 0 -- -- 92
2020-05-02 06:00:00 11.6 4 Norte 8 Norte 0 -- -- 92
2020-05-02 05:00:00 13.3 0 Calma 7 Noroeste 0 -- -- 88
2020-05-02 04:00:00 14.5 8 Noroeste 13 Noroeste 0 -- -- 84
2020-05-02 03:00:00 14.5 10 Noroeste 12 Noroeste 0 -- -- 84
2020-05-02 02:00:00 14.5 5 Norte 12 Noroeste 0 -- -- 85
2020-05-02 01:00:00 14.7 8 Norte 10 Noroeste 0 -- -- 83
2020-05-02 00:00:00 15.9 4 Noroeste 12 Noroeste 0 -- -- 82
2020-05-01 23:00:00 15.9 10 Norte 13 Noroeste 0 -- -- 84
2020-05-01 22:00:00 16.8 6 Noroeste 12 Oeste 0 -- -- 81
2020-05-01 21:00:00 18.7 9 Oeste 16 Oeste 0 -- -- 76
2020-05-01 20:00:00 20.2 13 Oeste 24 Oeste 0 -- -- 67
2020-05-01 19:00:00 21.2 18 Oeste 26 Oeste 0 -- -- 66
2020-05-01 18:00:00 20.3 18 Oeste 27 Oeste 0 -- -- 68
2020-05-01 17:00:00 20.8 19 Oeste 31 Oeste 0 -- -- 66
2020-05-01 16:00:00 19.4 16 Oeste 29 Oeste 0 -- -- 73
2020-05-01 15:00:00 18 19 Oeste 29 Oeste 0 -- -- 75
2020-05-01 14:00:00 18 15 Oeste 20 Oeste 0 -- -- 75
2020-05-01 13:00:00 17.1 12 Oeste 18 Oeste 0 -- -- 78
2020-05-01 12:00:00 16.3 10 Sudoeste 16 Sudoeste 0 -- -- 79
2020-05-01 11:00:00 14.6 4 Sudoeste 11 Sudoeste 0 -- -- 88
2020-05-01 10:00:00 13.3 4 Sur 7 Sudeste 0 -- -- 92
2020-05-01 09:00:00 12.1 5 Sudeste 9 Sudeste 0 -- -- 94
2020-05-01 08:00:00 12 5 Sudeste 8 Sudeste 0 -- -- 93
2020-05-01 07:00:00 12.3 3 Sur 11 Sudoeste 0 -- -- 92
2020-05-01 06:00:00 12.3 8 Sudoeste 15 Noroeste 0 -- -- 90
2020-05-01 05:00:00 11.8 13 Noroeste 17 Noroeste 0 -- -- 91
2020-05-01 04:00:00 12 8 Norte 14 Noroeste 0 -- -- 88
2020-05-01 03:00:00 12.6 11 Noroeste 22 Oeste 0 -- -- 86
2020-05-01 02:00:00 13.5 16 Oeste 20 Oeste 0 -- -- 84
2020-05-01 01:00:00 14.8 16 Oeste 22 Oeste 0 -- -- 80
2020-05-01 00:00:00 14.5 9 Oeste 13 Oeste 0 -- -- 83
2020-04-30 23:00:00 14.8 8 Noroeste 16 Noroeste 0 -- -- 82
2020-04-30 22:00:00 15.3 13 Oeste 17 Oeste 0 -- -- 77
2020-04-30 21:00:00 15.9 9 Noroeste 14 Noroeste 0 -- -- 76
2020-04-30 20:00:00 16.6 9 Oeste 14 Oeste 0 -- -- 72
2020-04-30 19:00:00 16.9 10 Oeste 15 Sudoeste 0 -- -- 67
2020-04-30 18:00:00 16.8 11 Sudoeste 22 Sudoeste 0 -- -- 66
2020-04-30 17:00:00 17.3 14 Oeste 24 Oeste 0 -- -- 66
2020-04-30 16:00:00 16.6 14 Oeste 23 Noroeste 0 -- -- 68
2020-04-30 15:00:00 15.3 18 Oeste 24 Oeste 0 -- -- 71
2020-04-30 14:00:00 15.2 21 Oeste 28 Oeste 0 -- -- 74
2020-04-30 13:00:00 15.6 18 Sudoeste 31 Oeste 0.2 -- -- 76
2020-04-30 12:00:00 14.2 17 Oeste 29 Oeste 0 -- -- 79
2020-04-30 11:00:00 13.5 13 Oeste 22 Oeste 0 -- -- 85
2020-04-30 10:00:00 13.1 5 Oeste 14 Sudoeste 0 -- -- 89
2020-04-30 09:00:00 12.1 4 Oeste 15 Oeste 0 -- -- 92
2020-04-30 08:00:00 11.6 13 Oeste 19 Oeste 0 -- -- 93
2020-04-30 07:00:00 11.5 10 Noroeste 21 Oeste 0 -- -- 95
2020-04-30 06:00:00 11.8 14 Oeste 20 Oeste 0 -- -- 96
2020-04-30 05:00:00 12.1 10 Oeste 15 Oeste 1 -- -- 96
2020-04-30 04:00:00 12.4 10 Oeste 19 Oeste 0.2 -- -- 93
2020-04-30 03:00:00 12.9 15 Oeste 24 Oeste 0 -- -- 90
2020-04-30 02:00:00 13.2 18 Sudoeste 27 Sudoeste 0 -- -- 88
2020-04-30 01:00:00 13.2 8 Oeste 21 Oeste 0 -- -- 87
2020-04-30 00:00:00 13 19 Oeste 28 Sudoeste 0 -- -- 88
2020-04-29 23:00:00 13.9 15 Sudoeste 28 Sudoeste 0 -- -- 87
2020-04-29 22:00:00 14.2 12 Sudoeste 31 Sudoeste 0 -- -- 83
2020-04-29 21:00:00 15.3 24 Sudoeste 36 Oeste 0 -- -- 77
2020-04-29 20:00:00 16 28 Oeste 38 Sudoeste 0 -- -- 72
2020-04-29 19:00:00 17.5 24 Oeste 37 Sudoeste 0 -- -- 61
2020-04-29 18:00:00 18.2 22 Oeste 36 Oeste 0 -- -- 57
2020-04-29 17:00:00 18.7 22 Sudoeste 35 Sudoeste 0 -- -- 48
2020-04-29 16:00:00 19.1 14 Sudoeste 33 Sudoeste 0 -- -- 49
2020-04-29 15:00:00 18 20 Sudoeste 31 Sudoeste 0 -- -- 49
2020-04-29 14:00:00 17.4 18 Sudoeste 30 Sudoeste 0 -- -- 46
2020-04-29 13:00:00 16.6 16 Sudoeste 32 Sudoeste 0 -- -- 52
2020-04-29 12:00:00 15.6 9 Sudoeste 19 Sudoeste 0 -- -- 63
2020-04-29 11:00:00 14.2 8 Sudoeste 14 Sudoeste 0 -- -- 74
2020-04-29 10:00:00 12.8 3 Sudoeste 7 Sudoeste 0 -- -- 76
2020-04-29 09:00:00 11.5 0 Calma 8 Norte 0 -- -- 80
2020-04-29 08:00:00 8.5 3 Nordeste 6 Noroeste 0 -- -- 87
2020-04-29 07:00:00 8.7 7 Noroeste 9 Noroeste 0 -- -- 87
2020-04-29 06:00:00 8.7 0 Calma 13 Noroeste 0 -- -- 87
2020-04-29 05:00:00 8.9 10 Noroeste 14 Noroeste 0 -- -- 86
2020-04-29 04:00:00 9.7 9 Noroeste 15 Noroeste 0 -- -- 84
2020-04-29 03:00:00 9.9 12 Noroeste 17 Noroeste 0 -- -- 82
2020-04-29 02:00:00 11.1 13 Noroeste 22 Noroeste 0 -- -- 79
2020-04-29 01:00:00 11.1 14 Noroeste 19 Noroeste 0 -- -- 77
2020-04-29 00:00:00 11.6 4 Noroeste 12 Norte 0 -- -- 72
2020-04-28 23:00:00 12 7 Noroeste 18 Noroeste 0 -- -- 73
2020-04-28 22:00:00 12 9 Noroeste 15 Oeste 0 -- -- 73
2020-04-28 21:00:00 14.2 9 Noroeste 20 Noroeste 0 -- -- 66
2020-04-28 20:00:00 15.4 15 Oeste 35 Oeste 0 -- -- 55
2020-04-28 19:00:00 17.5 18 Oeste 30 Oeste 0 -- -- 51
2020-04-28 18:00:00 16.8 19 Oeste 28 Oeste 0 -- -- 50
2020-04-28 17:00:00 17 17 Sudoeste 28 Sudoeste 0 -- -- 54
2020-04-28 16:00:00 16.4 18 Oeste 33 Sudoeste 0 -- -- 53
2020-04-28 15:00:00 16 19 Oeste 29 Oeste 0 -- -- 53
2020-04-28 14:00:00 15.8 19 Sudoeste 27 Sudoeste 0 -- -- 57
2020-04-28 13:00:00 14.8 12 Oeste 24 Sudoeste 0 -- -- 60
2020-04-28 12:00:00 13.9 8 Sudoeste 18 Sudoeste 0 -- -- 71
2020-04-28 11:00:00 13.3 6 Sudoeste 14 Sudoeste 0 -- -- 74
2020-04-28 10:00:00 11.5 5 Oeste 14 Noroeste 0 -- -- 80
2020-04-28 09:00:00 9.7 7 Noroeste 12 Noroeste 0 -- -- 88
2020-04-28 08:00:00 8 8 Noroeste 12 Noroeste 0 -- -- 91
2020-04-28 07:00:00 7.9 5 Noroeste 13 Noroeste 0 -- -- 92
2020-04-28 06:00:00 8.5 9 Noroeste 18 Noroeste 0 -- -- 93
2020-04-28 05:00:00 9.3 14 Noroeste 16 Noroeste 0 -- -- 91
2020-04-28 04:00:00 9.8 6 Oeste 10 Oeste 0 -- -- 91
2020-04-28 03:00:00 10.5 5 Oeste 10 Sudoeste 0 -- -- 86
2020-04-28 02:00:00 10.6 9 Noroeste 10 Noroeste 0 -- -- 86
2020-04-28 01:00:00 10.6 8 Noroeste 10 Noroeste 0 -- -- 83
2020-04-28 00:00:00 11.1 8 Noroeste 20 Noroeste 0 -- -- 82
2020-04-27 23:00:00 11.8 16 Noroeste 24 Noroeste 0 -- -- 78
2020-04-27 22:00:00 12.5 11 Noroeste 18 Noroeste 0 -- -- 72
2020-04-27 21:00:00 13.7 15 Noroeste 28 Oeste 0 -- -- 71
2020-04-27 20:00:00 15.4 15 Oeste 29 Oeste 0 -- -- 60
2020-04-27 19:00:00 16.2 20 Oeste 34 Sudoeste 0 -- -- 57
2020-04-27 18:00:00 17.5 21 Sudoeste 32 Sudoeste 0 -- -- 52
2020-04-27 17:00:00 17.2 18 Sudoeste 30 Sudoeste 0 -- -- 63
2020-04-27 16:00:00 16.9 18 Sudoeste 28 Sur 0 -- -- 60
2020-04-27 15:00:00 16.7 17 Sudoeste 24 Sudoeste 0 -- -- 63
2020-04-27 14:00:00 15.5 8 Noroeste 24 Oeste 0 -- -- 70
2020-04-27 13:00:00 14.4 8 Oeste 20 Sudoeste 0 -- -- 76
2020-04-27 12:00:00 14.1 8 Sudoeste 17 Sudoeste 0 -- -- 78
2020-04-27 11:00:00 13.1 5 Sudoeste 13 Oeste 0 -- -- 87
2020-04-27 10:00:00 12.2 4 Sudoeste 6 Sur 0 -- -- 90
2020-04-27 09:00:00 11.3 2 Este 8 Sudeste 0 -- -- 93
2020-04-27 08:00:00 10.4 3 Este 4 Este 0 -- -- 95
2020-04-27 07:00:00 10.3 2 Sudoeste 4 Oeste 0 -- -- 90
2020-04-27 06:00:00 10.9 0 Calma 9 Noroeste 0 -- -- 92
2020-04-27 05:00:00 10.8 5 Oeste 13 Noroeste 0.6 -- -- 93
2020-04-27 04:00:00 10.9 9 Noroeste 14 Noroeste 0.2 -- -- 90
2020-04-27 03:00:00 11.5 5 Oeste 15 Norte 0 -- -- 83
2020-04-27 02:00:00 11.4 9 Noroeste 17 Noroeste 0 -- -- 83
2020-04-27 01:00:00 10.8 14 Noroeste 22 Norte 0 -- -- 86
2020-04-27 00:00:00 11.1 15 Noroeste 21 Oeste 0 -- -- 83
2020-04-26 23:00:00 12.7 4 Noroeste 10 Oeste 0 -- -- 77
2020-04-26 22:00:00 13 5 Sudoeste 13 Sudoeste 0 -- -- 73
2020-04-26 21:00:00 14 10 Oeste 22 Sudoeste 0 -- -- 65
2020-04-26 20:00:00 14.8 13 Sudoeste 26 Sudoeste 0 -- -- 62
2020-04-26 19:00:00 17 17 Sudoeste 30 Sudoeste 0 -- -- 54
2020-04-26 18:00:00 16.8 22 Sudoeste 33 Sudoeste 0 -- -- 54
2020-04-26 17:00:00 16.7 18 Sudoeste 30 Sudoeste 0 -- -- 60
2020-04-26 16:00:00 17.5 21 Sudoeste 32 Sudoeste 0 -- -- 59
2020-04-26 15:00:00 16.6 6 Sudoeste 26 Sur 0 -- -- 69
2020-04-26 14:00:00 16 7 Sur 20 Sudeste 0 -- -- 73
2020-04-26 13:00:00 14.2 8 Sudeste 15 Sudeste 0 -- -- 78
2020-04-26 12:00:00 12.6 6 Sudeste 14 Sudeste 0 -- -- 82
2020-04-26 11:00:00 10.4 3 Este 9 Sur 0 -- -- 90
2020-04-26 10:00:00 -- 0 Calma -- -- 0 -- -- --
2020-04-26 09:00:00 8.5 4 Oeste 11 Oeste 0 -- -- 97
2020-04-26 08:00:00 8.5 7 Oeste 17 Sudoeste 0 -- -- 96
2020-04-26 07:00:00 9.1 0 Calma 9 Oeste 0 -- -- 94
2020-04-26 06:00:00 9.6 7 Noroeste 15 Noroeste 0 -- -- 92
2020-04-26 05:00:00 10 12 Noroeste 21 Noroeste 0 -- -- 92
2020-04-26 04:00:00 11.1 13 Noroeste 21 Noroeste 0 -- -- 89
2020-04-26 03:00:00 11.8 14 Noroeste 18 Noroeste 0 -- -- 90
2020-04-26 02:00:00 12.1 13 Noroeste 17 Noroeste 0 -- -- 91
2020-04-26 01:00:00 12.6 13 Noroeste 22 Noroeste 0 -- -- 91
2020-04-26 00:00:00 12.9 15 Noroeste 21 Noroeste 0 -- -- 91